Terminal Aerodrome Forecast
Issued by NWS Cleveland, OH

Home | Current Version | Previous Version | Graphics & Text | Print | Product List | Glossary On
Versions: 1 2 3 4 5 6 7 8 9 10 11 12 13 14 15 16 17 18
000
FTUS41 KCLE 250100 AAA
TAFMFD
TAF AMD
KMFD 250141Z 2502/2524 26022G35KT 6SM -SHRA BR OVC010
      TEMPO 2503/2505 5SM -RASN OVC008
     FM250500 25015G30KT 3SM -SHSN OVC008
     FM251200 25015G25KT P6SM -SHSN OVC012
     FM251600 26014G24KT 6SM BR OVC025=

USA.gov is the U.S. government's official web portal to all federal, state and local government web resources and services.